createdAt,value
2018-09-24T00:01:45.017Z,23.33
2018-09-24T00:04:12.445Z,14.23
2018-09-24T00:06:39.862Z,14.50
2018-09-24T00:09:07.316Z,15.63
2018-09-24T00:11:34.733Z,14.03
2018-09-24T00:14:02.166Z,15.37
2018-09-24T00:16:29.587Z,15.97
2018-09-24T00:18:57.015Z,18.20
2018-09-24T00:21:24.428Z,14.33
2018-09-24T00:23:51.865Z,15.17
2018-09-24T00:26:19.271Z,16.43
2018-09-24T00:28:46.720Z,16.83
2018-09-24T00:31:14.143Z,17.03
2018-09-24T00:33:41.558Z,18.07
2018-09-24T00:36:09.000Z,19.63
2018-09-24T00:38:36.416Z,17.50
2018-09-24T00:41:03.846Z,18.87
2018-09-24T00:43:31.327Z,18.73
2018-09-24T00:45:58.696Z,16.63
2018-09-24T00:48:26.119Z,18.67
2018-09-24T00:50:53.518Z,17.53
2018-09-24T00:53:20.951Z,17.70
2018-09-24T00:55:48.363Z,16.43
2018-09-24T00:58:15.800Z,16.27
2018-09-24T01:00:43.258Z,15.73
2018-09-24T01:03:10.718Z,16.33
2018-09-24T01:05:40.779Z,22.10
2018-09-24T01:08:08.181Z,17.70
2018-09-24T01:10:35.593Z,21.53
2018-09-24T01:13:03.038Z,15.80
2018-09-24T01:15:30.684Z,13.47
2018-09-24T01:17:58.094Z,15.57
2018-09-24T01:20:25.527Z,17.27
2018-09-24T01:22:52.958Z,14.50
2018-09-24T01:25:20.370Z,17.97
2018-09-24T01:27:47.812Z,17.23
2018-09-24T01:30:15.233Z,21.13
2018-09-24T01:32:42.661Z,16.23
2018-09-24T01:35:10.075Z,12.17
2018-09-24T01:37:38.681Z,16.87
2018-09-24T01:40:06.087Z,14.73
2018-09-24T01:42:33.501Z,13.57
2018-09-24T01:45:00.937Z,15.77
2018-09-24T01:47:28.345Z,14.13
2018-09-24T01:49:55.758Z,11.90
2018-09-24T01:52:23.178Z,11.43
2018-09-24T01:54:50.595Z,16.13
2018-09-24T01:57:18.034Z,19.73
2018-09-24T01:59:45.448Z,15.00
2018-09-24T02:02:12.852Z,17.77
2018-09-24T02:04:40.278Z,20.37
2018-09-24T02:07:07.697Z,18.03
2018-09-24T02:09:35.137Z,22.37
2018-09-24T02:12:02.545Z,20.07
2018-09-24T02:14:29.980Z,17.07
2018-09-24T02:16:57.374Z,19.50
2018-09-24T02:19:24.794Z,17.53
2018-09-24T02:21:52.212Z,18.33
2018-09-24T02:24:19.644Z,17.23
2018-09-24T02:26:47.047Z,20.03
2018-09-24T02:29:14.464Z,17.13
2018-09-24T02:31:41.876Z,16.07
2018-09-24T02:34:09.323Z,19.47
2018-09-24T02:36:36.722Z,20.87
2018-09-24T02:39:04.159Z,20.97
2018-09-24T02:41:31.578Z,18.90
2018-09-24T02:43:58.986Z,17.47
2018-09-24T02:46:26.471Z,19.50
2018-09-24T02:48:53.878Z,16.23
2018-09-24T02:51:21.294Z,16.13
2018-09-24T02:53:48.742Z,24.33
2018-09-24T02:56:16.168Z,17.93
2018-09-24T02:58:43.604Z,21.07
2018-09-24T03:01:11.074Z,20.37
2018-09-24T03:03:38.436Z,22.13
2018-09-24T03:06:05.842Z,16.07
2018-09-24T03:08:33.279Z,18.93
2018-09-24T03:11:00.751Z,21.60
2018-09-24T03:13:28.123Z,17.97
2018-09-24T03:15:55.561Z,16.63
2018-09-24T03:18:22.982Z,15.50
2018-09-24T03:20:50.407Z,13.97
2018-09-24T03:23:17.823Z,16.53
2018-09-24T03:25:45.263Z,12.17
2018-09-24T03:28:12.691Z,11.00
2018-09-24T03:30:40.101Z,14.13
2018-09-24T03:33:07.525Z,16.97
2018-09-24T03:35:34.934Z,12.67
2018-09-24T03:38:02.373Z,13.23
2018-09-24T03:40:29.814Z,14.10
2018-09-24T03:42:57.237Z,14.37
2018-09-24T03:45:24.647Z,11.57
2018-09-24T03:47:52.055Z,12.60
2018-09-24T03:50:19.478Z,15.17
2018-09-24T03:52:46.883Z,12.53
2018-09-24T03:55:14.331Z,10.07
2018-09-24T03:57:41.761Z,9.97
2018-09-24T04:00:09.170Z,14.53
2018-09-24T04:02:36.603Z,13.63
2018-09-24T04:05:22.279Z,9.87
2018-09-24T04:08:07.738Z,13.17
2018-09-24T04:10:53.222Z,11.27
2018-09-24T04:13:39.012Z,14.30
2018-09-24T04:16:24.624Z,13.60
2018-09-24T04:19:10.170Z,13.17
2018-09-24T04:21:56.022Z,15.17
2018-09-24T04:24:41.549Z,23.40
2018-09-24T04:27:26.901Z,8.07
2018-09-24T04:30:13.156Z,12.80
2018-09-24T04:32:58.523Z,17.07
2018-09-24T04:35:44.195Z,11.50
2018-09-24T04:38:29.671Z,11.83
2018-09-24T04:41:15.494Z,12.60
2018-09-24T04:44:01.196Z,9.43
2018-09-24T04:46:46.618Z,11.07
2018-09-24T04:53:00.790Z,13.93
2018-09-24T04:55:46.614Z,12.93
2018-09-24T05:02:01.579Z,11.50
2018-09-24T05:04:47.167Z,8.93
2018-09-24T05:07:32.694Z,14.40
2018-09-24T05:10:18.532Z,11.10
2018-09-24T05:13:04.043Z,8.63
2018-09-24T05:15:49.616Z,9.20
2018-09-24T05:18:35.276Z,10.67
2018-09-24T05:21:20.597Z,10.10
2018-09-24T05:24:06.262Z,15.33
2018-09-24T05:26:51.623Z,14.77
2018-09-24T05:29:37.247Z,11.77
2018-09-24T05:32:22.950Z,8.50
2018-09-24T05:35:08.569Z,12.17
2018-09-24T05:37:54.242Z,12.33
2018-09-24T05:40:39.747Z,11.37
2018-09-24T05:43:25.573Z,8.13
2018-09-24T05:46:10.953Z,13.20
2018-09-24T05:48:56.374Z,12.97
2018-09-24T05:51:41.832Z,7.60
2018-09-24T05:54:27.617Z,9.97
2018-09-24T05:57:13.399Z,16.73
2018-09-24T05:59:58.904Z,9.67
2018-09-24T06:02:44.176Z,10.07
2018-09-24T06:05:29.682Z,8.87
2018-09-24T06:08:15.211Z,8.37
2018-09-24T06:11:00.821Z,11.07
2018-09-24T06:13:46.139Z,9.23
2018-09-24T06:16:31.785Z,7.77
2018-09-24T06:19:17.391Z,7.53
2018-09-24T06:22:02.920Z,9.67
2018-09-24T06:24:48.465Z,7.80
2018-09-24T06:27:34.162Z,8.67
2018-09-24T06:30:19.595Z,8.70
2018-09-24T06:33:05.354Z,7.17
2018-09-24T06:35:51.032Z,9.30
2018-09-24T06:38:36.579Z,13.63
2018-09-24T06:41:22.239Z,12.17
2018-09-24T06:44:07.866Z,7.60
2018-09-24T06:46:53.665Z,8.77
2018-09-24T06:49:39.435Z,8.83
2018-09-24T06:52:24.799Z,8.63
2018-09-24T06:55:10.329Z,21.03
2018-09-24T06:57:56.026Z,9.53
2018-09-24T07:00:41.884Z,11.30
2018-09-24T07:03:27.768Z,16.80
2018-09-24T07:06:13.517Z,10.30
2018-09-24T07:08:59.215Z,10.80
2018-09-24T07:11:44.661Z,10.30
2018-09-24T07:14:30.310Z,11.23
2018-09-24T07:17:15.782Z,8.73
2018-09-24T07:20:01.471Z,8.60
2018-09-24T07:22:47.398Z,10.40
2018-09-24T07:25:32.747Z,12.90
2018-09-24T07:28:18.443Z,8.80
2018-09-24T07:31:03.939Z,10.47
2018-09-24T07:33:49.421Z,10.27
2018-09-24T07:36:34.989Z,11.57
2018-09-24T07:39:20.585Z,10.13
2018-09-24T07:42:06.302Z,11.63
2018-09-24T07:44:51.804Z,7.90
2018-09-24T07:47:37.272Z,11.93
2018-09-24T07:50:23.010Z,8.93
2018-09-24T07:53:08.516Z,8.80
2018-09-24T07:55:54.387Z,6.00
2018-09-24T07:58:40.018Z,9.47
2018-09-24T08:01:25.508Z,10.50
2018-09-24T08:04:11.006Z,10.00
2018-09-24T08:06:56.402Z,12.57
2018-09-24T08:09:42.313Z,6.83
2018-09-24T08:12:28.007Z,9.97
2018-09-24T08:15:13.619Z,13.83
2018-09-24T08:17:59.223Z,8.77
2018-09-24T08:20:45.067Z,6.40
2018-09-24T08:23:30.640Z,8.77
2018-09-24T08:26:15.919Z,9.90
2018-09-24T08:29:01.732Z,10.37
2018-09-24T08:31:47.283Z,7.47
2018-09-24T08:34:33.032Z,11.00
2018-09-24T08:37:18.452Z,13.37
2018-09-24T08:40:03.833Z,6.37
2018-09-24T08:42:49.457Z,9.93
2018-09-24T08:45:35.156Z,6.40
2018-09-24T08:48:20.944Z,5.70
2018-09-24T08:51:06.864Z,5.93
2018-09-24T08:53:52.506Z,7.30
2018-09-24T08:56:38.075Z,7.60
2018-09-24T08:59:23.737Z,9.40
2018-09-24T09:02:09.507Z,6.80
2018-09-24T09:04:55.186Z,4.17
2018-09-24T09:07:40.645Z,5.17
2018-09-24T09:10:26.333Z,7.33
2018-09-24T09:13:11.749Z,4.50
2018-09-24T09:15:57.444Z,6.67
2018-09-24T09:18:43.144Z,6.37
2018-09-24T09:21:28.854Z,7.20
2018-09-24T09:24:14.463Z,6.57
2018-09-24T09:26:59.938Z,5.93
2018-09-24T09:29:45.413Z,10.20
2018-09-24T09:32:31.037Z,5.57
2018-09-24T09:35:16.601Z,7.03
2018-09-24T09:38:02.408Z,6.80
2018-09-24T09:40:48.011Z,7.83
2018-09-24T09:43:33.566Z,7.53
2018-09-24T09:46:19.304Z,10.03
2018-09-24T09:49:04.837Z,4.93
2018-09-24T09:51:50.497Z,6.60
2018-09-24T09:54:35.889Z,4.10
2018-09-24T09:57:21.373Z,5.67
2018-09-24T10:00:07.237Z,5.53
2018-09-24T10:02:53.022Z,5.00
2018-09-24T10:05:38.428Z,5.93
2018-09-24T10:08:23.877Z,7.20
2018-09-24T10:11:09.259Z,4.73
2018-09-24T10:13:54.877Z,6.60
2018-09-24T10:16:40.416Z,4.80
2018-09-24T10:19:26.096Z,6.23
2018-09-24T10:22:11.750Z,6.33
2018-09-24T10:24:57.299Z,3.27
2018-09-24T10:27:43.112Z,5.67
2018-09-24T10:30:28.735Z,8.60
2018-09-24T10:33:14.604Z,8.90
2018-09-24T10:36:00.228Z,9.63
2018-09-24T10:38:45.752Z,7.20
2018-09-24T10:41:31.709Z,6.20
2018-09-24T10:44:17.174Z,5.30
2018-09-24T10:47:03.036Z,6.97
2018-09-24T10:49:48.750Z,7.03
2018-09-24T10:52:34.316Z,4.73
2018-09-24T10:55:20.501Z,6.17
2018-09-24T10:58:06.049Z,4.87
2018-09-24T11:00:51.636Z,2.50
2018-09-24T11:03:37.096Z,4.00
2018-09-24T11:06:22.698Z,4.37
2018-09-24T11:09:08.327Z,4.70
2018-09-24T11:11:54.103Z,3.97
2018-09-24T11:14:39.820Z,2.73
2018-09-24T11:17:25.476Z,2.50
2018-09-24T11:20:11.020Z,2.60
2018-09-24T11:22:56.673Z,3.87
2018-09-24T11:25:42.208Z,4.33
2018-09-24T11:28:28.080Z,2.03
2018-09-24T11:31:13.652Z,2.43
2018-09-24T11:33:59.142Z,3.73
2018-09-24T11:36:44.860Z,3.87
2018-09-24T11:39:30.661Z,2.50
2018-09-24T11:42:16.019Z,2.57
2018-09-24T11:45:01.593Z,2.53
2018-09-24T11:47:47.488Z,1.50
2018-09-24T11:50:33.309Z,2.37
2018-09-24T11:53:18.734Z,5.67
2018-09-24T11:56:04.626Z,4.23
2018-09-24T11:58:50.323Z,2.03
2018-09-24T12:01:35.754Z,2.57
2018-09-24T12:04:21.724Z,2.43
2018-09-24T12:07:07.249Z,4.73
2018-09-24T12:09:52.851Z,6.63
2018-09-24T12:12:38.512Z,2.70
2018-09-24T12:15:23.998Z,4.03
2018-09-24T12:18:09.658Z,4.30
2018-09-24T12:20:55.177Z,1.50
2018-09-24T12:23:40.902Z,5.17
2018-09-24T12:26:26.356Z,2.83
2018-09-24T12:29:12.146Z,2.67
2018-09-24T12:31:57.714Z,5.23
2018-09-24T12:34:43.279Z,2.37
2018-09-24T12:37:28.912Z,6.53
2018-09-24T12:40:14.321Z,3.27
2018-09-24T12:43:00.002Z,3.10
2018-09-24T12:45:45.807Z,2.23
2018-09-24T12:48:31.232Z,3.60
2018-09-24T12:51:16.813Z,2.27
2018-09-24T12:54:02.385Z,3.60
2018-09-24T12:56:47.877Z,2.30
2018-09-24T12:59:33.899Z,3.73
2018-09-24T13:02:19.693Z,11.47
2018-09-24T13:05:05.535Z,2.50
2018-09-24T13:07:51.087Z,3.03
2018-09-24T13:10:36.935Z,5.90
2018-09-24T13:13:22.441Z,3.23
2018-09-24T13:16:08.340Z,4.30
2018-09-24T13:18:53.805Z,2.83
2018-09-24T13:21:39.494Z,3.43
2018-09-24T13:24:24.983Z,4.70
2018-09-24T13:27:10.858Z,5.83
2018-09-24T13:29:56.532Z,4.13
2018-09-24T13:32:42.172Z,4.77
2018-09-24T13:35:27.830Z,9.53
2018-09-24T13:38:13.664Z,4.37
2018-09-24T13:40:59.319Z,8.73
2018-09-24T13:43:44.864Z,5.13
2018-09-24T13:46:30.442Z,4.73
2018-09-24T13:49:16.360Z,2.97
2018-09-24T13:52:01.896Z,3.10
2018-09-24T13:54:47.667Z,3.00
2018-09-24T13:57:33.312Z,5.57
2018-09-24T14:00:19.238Z,3.27
2018-09-24T14:03:04.917Z,3.70
2018-09-24T14:05:50.278Z,4.10
2018-09-24T14:08:35.893Z,10.93
2018-09-24T14:11:21.421Z,4.17
2018-09-24T14:14:07.031Z,5.07
2018-09-24T14:16:52.538Z,9.70
2018-09-24T14:19:38.129Z,4.10
2018-09-24T14:22:23.626Z,6.00
2018-09-24T14:25:29.290Z,4.73
2018-09-24T14:28:14.726Z,8.10
2018-09-24T14:31:00.047Z,3.20
2018-09-24T14:33:45.531Z,2.13
2018-09-24T14:36:31.278Z,4.30
2018-09-24T14:39:16.729Z,7.20
2018-09-24T14:42:02.285Z,2.60
2018-09-24T14:44:47.991Z,4.63
2018-09-24T14:47:33.609Z,6.40
2018-09-24T14:50:18.989Z,7.17
2018-09-24T14:53:04.588Z,6.80
2018-09-24T14:55:49.988Z,3.67
2018-09-24T14:58:35.718Z,6.10
2018-09-24T15:01:20.983Z,7.87
2018-09-24T15:04:06.649Z,5.17
2018-09-24T15:06:52.284Z,7.67
2018-09-24T15:09:37.856Z,7.67
2018-09-24T15:12:23.660Z,7.67
2018-09-24T15:15:08.993Z,5.77
2018-09-24T15:17:54.330Z,5.13
2018-09-24T15:20:40.061Z,6.80
2018-09-24T15:23:25.837Z,4.27
2018-09-24T15:26:11.497Z,7.17
2018-09-24T15:28:57.195Z,13.10
2018-09-24T15:31:42.937Z,6.23
2018-09-24T15:34:28.664Z,7.57
2018-09-24T15:37:14.082Z,6.17
2018-09-24T15:39:59.925Z,8.23
2018-09-24T15:42:45.697Z,7.50
2018-09-24T15:45:31.061Z,6.03
2018-09-24T15:48:16.505Z,6.57
2018-09-24T15:51:02.066Z,8.20
2018-09-24T15:53:47.425Z,6.70
2018-09-24T15:56:33.036Z,6.10
2018-09-24T15:59:18.503Z,6.33
2018-09-24T16:02:04.082Z,7.37
2018-09-24T16:04:49.784Z,6.03
2018-09-24T16:07:35.352Z,4.60
2018-09-24T16:10:21.100Z,17.90
2018-09-24T16:13:06.943Z,5.73
2018-09-24T16:15:52.515Z,9.20
2018-09-24T16:18:37.882Z,6.57
2018-09-24T16:21:23.531Z,6.47
2018-09-24T16:24:09.165Z,9.60
2018-09-24T16:26:54.996Z,6.80
2018-09-24T16:29:40.831Z,8.07
2018-09-24T16:32:26.358Z,6.37
2018-09-24T16:35:12.084Z,9.20
2018-09-24T16:37:57.376Z,7.10
2018-09-24T16:40:43.085Z,7.27
2018-09-24T16:43:29.199Z,8.67
2018-09-24T16:46:14.706Z,7.23
2018-09-24T16:49:00.517Z,8.00
2018-09-24T16:51:46.118Z,10.23
2018-09-24T16:54:31.645Z,6.57
2018-09-24T16:57:17.297Z,7.90
2018-09-24T17:00:02.836Z,8.13
2018-09-24T17:02:48.449Z,6.93
2018-09-24T17:05:33.794Z,4.47
2018-09-24T17:08:19.158Z,9.13
2018-09-24T17:11:05.043Z,5.00
2018-09-24T17:13:50.636Z,10.37
2018-09-24T17:16:36.164Z,7.93
2018-09-24T17:19:21.693Z,15.60
2018-09-24T17:22:07.393Z,7.93
2018-09-24T17:24:53.047Z,5.00
2018-09-24T17:27:38.354Z,7.83
2018-09-24T17:30:24.203Z,8.70
2018-09-24T17:33:10.005Z,9.30
2018-09-24T17:35:55.761Z,6.80
2018-09-24T17:38:41.453Z,7.77
2018-09-24T17:41:26.889Z,8.03
2018-09-24T17:44:12.572Z,4.03
2018-09-24T17:46:57.952Z,8.73
2018-09-24T17:49:43.629Z,7.53
2018-09-24T17:52:29.275Z,8.67
2018-09-24T17:55:14.619Z,7.03
2018-09-24T17:58:00.546Z,9.17
2018-09-24T18:00:46.071Z,7.97
2018-09-24T18:03:31.622Z,10.50
2018-09-24T18:06:17.602Z,8.57
2018-09-24T18:09:02.928Z,7.60
2018-09-24T18:11:48.560Z,19.53
2018-09-24T18:14:34.238Z,28.97
2018-09-24T18:17:19.609Z,24.90
2018-09-24T18:20:05.497Z,6.57
2018-09-24T18:22:51.001Z,8.47
2018-09-24T18:25:36.402Z,10.53
2018-09-24T18:28:22.053Z,6.40
2018-09-24T18:31:07.745Z,8.37
2018-09-24T18:33:53.441Z,7.53
2018-09-24T18:36:38.757Z,6.60
2018-09-24T18:39:24.257Z,7.37
2018-09-24T18:42:09.751Z,9.60
2018-09-24T18:44:55.199Z,6.27
2018-09-24T18:47:40.939Z,10.47
2018-09-24T18:50:26.694Z,18.63
2018-09-24T18:53:12.366Z,9.00
2018-09-24T18:55:58.885Z,9.77
2018-09-24T18:58:44.509Z,7.43
2018-09-24T19:01:30.233Z,9.03
2018-09-24T19:04:15.851Z,9.50
2018-09-24T19:07:01.298Z,7.53
2018-09-24T19:09:46.735Z,7.07
2018-09-24T19:12:32.274Z,7.83
2018-09-24T19:15:17.815Z,6.77
2018-09-24T19:18:03.314Z,7.70
2018-09-24T19:20:49.234Z,10.17
2018-09-24T19:23:34.734Z,7.47
2018-09-24T19:26:20.603Z,10.87
2018-09-24T19:29:06.246Z,8.23
2018-09-24T19:31:51.614Z,9.23
2018-09-24T19:34:37.291Z,10.60
2018-09-24T19:37:23.072Z,10.67
2018-09-24T19:43:36.989Z,10.03
2018-09-24T19:46:22.355Z,10.57
2018-09-24T19:49:08.074Z,17.47
2018-09-24T19:51:53.501Z,11.63
2018-09-24T19:54:39.397Z,10.13
2018-09-24T19:57:24.924Z,9.00
2018-09-24T20:00:10.545Z,10.30
2018-09-24T20:02:56.364Z,14.07
2018-09-24T20:05:44.475Z,11.90
2018-09-24T20:08:30.263Z,8.33
2018-09-24T20:11:16.198Z,9.13
2018-09-24T20:14:01.644Z,7.57
2018-09-24T20:16:47.597Z,10.70
2018-09-24T20:19:35.520Z,9.97
2018-09-24T20:22:21.086Z,9.77
2018-09-24T20:25:06.947Z,10.43
2018-09-24T20:27:54.007Z,10.87
2018-09-24T20:34:09.220Z,13.13
2018-09-24T20:36:55.087Z,7.80
2018-09-24T20:39:41.209Z,6.33
2018-09-24T20:42:26.884Z,6.37
2018-09-24T20:45:12.566Z,5.80
2018-09-24T20:47:57.996Z,8.80
2018-09-24T20:50:43.349Z,5.20
2018-09-24T20:53:29.392Z,8.73
2018-09-24T20:56:15.169Z,6.13
2018-09-24T20:59:00.956Z,6.80
2018-09-24T21:01:46.273Z,7.30
2018-09-24T21:04:31.843Z,8.83
2018-09-24T21:07:17.530Z,10.63
2018-09-24T21:10:02.950Z,5.73
2018-09-24T21:12:48.457Z,8.37
2018-09-24T21:15:34.018Z,7.10
2018-09-24T21:18:19.792Z,8.13
2018-09-24T21:21:05.617Z,7.17
2018-09-24T21:27:20.987Z,10.97
2018-09-24T21:30:07.826Z,8.10
2018-09-24T21:32:53.378Z,11.77
2018-09-24T21:35:39.202Z,7.33
2018-09-24T21:38:24.688Z,12.10
2018-09-24T21:41:10.479Z,7.37
2018-09-24T21:43:56.077Z,10.63
2018-09-24T21:46:41.734Z,9.20
2018-09-24T21:49:27.399Z,9.67
2018-09-24T21:52:12.765Z,9.30
2018-09-24T21:54:58.490Z,6.93
2018-09-24T21:57:44.166Z,8.70
2018-09-24T22:00:29.566Z,8.70
2018-09-24T22:03:15.138Z,8.80
2018-09-24T22:06:00.709Z,8.13
2018-09-24T22:08:46.158Z,6.40
2018-09-24T22:11:31.883Z,9.43
2018-09-24T22:14:17.504Z,10.27
2018-09-24T22:17:03.024Z,10.07
2018-09-24T22:19:48.509Z,6.87
2018-09-24T22:22:34.036Z,8.27
2018-09-24T22:25:19.772Z,5.80
2018-09-24T22:28:05.358Z,7.67
2018-09-24T22:30:51.094Z,7.70
2018-09-24T22:33:36.531Z,5.50
2018-09-24T22:36:22.166Z,6.50
2018-09-24T22:39:07.776Z,9.83
2018-09-24T22:41:53.468Z,7.87
2018-09-24T22:44:39.213Z,8.03
2018-09-24T22:47:24.694Z,4.97
2018-09-24T22:50:10.492Z,6.60
2018-09-24T22:52:56.061Z,11.30
2018-09-24T22:55:41.725Z,8.00
2018-09-24T22:58:27.618Z,7.67
2018-09-24T23:01:13.243Z,7.60
2018-09-24T23:03:58.773Z,7.37
2018-09-24T23:06:44.518Z,6.43
2018-09-24T23:09:29.869Z,6.60
2018-09-24T23:12:15.579Z,9.40
2018-09-24T23:15:01.446Z,9.50
2018-09-24T23:17:47.126Z,9.23
2018-09-24T23:20:32.624Z,15.30
2018-09-24T23:23:18.154Z,7.27
2018-09-24T23:26:03.988Z,7.23
2018-09-24T23:28:49.563Z,9.23
2018-09-24T23:31:35.333Z,8.07
2018-09-24T23:34:20.821Z,9.47
2018-09-24T23:37:06.591Z,12.23
2018-09-24T23:39:52.292Z,8.20
2018-09-24T23:42:37.818Z,11.43
2018-09-24T23:45:23.333Z,7.03
2018-09-24T23:48:08.909Z,7.40
2018-09-24T23:50:54.708Z,12.10
2018-09-24T23:53:40.343Z,10.30
2018-09-24T23:56:25.812Z,7.80
2018-09-24T23:59:11.335Z,7.93
